sensor_id;sensor_type;location;lat;lon;timestamp;P1;durP1;ratioP1;P2;durP2;ratioP2
65315;SDS011;51920;53.952;10.292;2022-09-27T00:02:10;7.03;;;5.40;;
65315;SDS011;51920;53.952;10.292;2022-09-27T00:04:35;7.60;;;5.93;;
65315;SDS011;51920;53.952;10.292;2022-09-27T00:07:01;8.07;;;5.40;;
65315;SDS011;51920;53.952;10.292;2022-09-27T00:09:26;14.80;;;6.30;;
65315;SDS011;51920;53.952;10.292;2022-09-27T00:11:51;7.23;;;5.50;;
65315;SDS011;51920;53.952;10.292;2022-09-27T00:14:17;7.30;;;6.00;;
65315;SDS011;51920;53.952;10.292;2022-09-27T00:16:43;9.53;;;5.83;;
65315;SDS011;51920;53.952;10.292;2022-09-27T00:19:13;9.32;;;5.93;;
65315;SDS011;51920;53.952;10.292;2022-09-27T00:21:40;7.63;;;5.80;;
65315;SDS011;51920;53.952;10.292;2022-09-27T00:24:14;7.80;;;5.80;;
65315;SDS011;51920;53.952;10.292;2022-09-27T00:26:41;8.02;;;6.00;;
65315;SDS011;51920;53.952;10.292;2022-09-27T00:29:08;8.10;;;5.57;;
65315;SDS011;51920;53.952;10.292;2022-09-27T00:31:36;7.70;;;5.47;;
65315;SDS011;51920;53.952;10.292;2022-09-27T00:34:02;7.18;;;5.40;;
65315;SDS011;51920;53.952;10.292;2022-09-27T00:36:30;9.00;;;5.47;;
65315;SDS011;51920;53.952;10.292;2022-09-27T00:38:56;7.93;;;5.47;;
65315;SDS011;51920;53.952;10.292;2022-09-27T00:41:27;8.98;;;5.32;;
65315;SDS011;51920;53.952;10.292;2022-09-27T00:43:58;10.43;;;5.83;;
65315;SDS011;51920;53.952;10.292;2022-09-27T00:46:36;7.35;;;5.20;;
65315;SDS011;51920;53.952;10.292;2022-09-27T00:51:41;7.20;;;5.50;;
65315;SDS011;51920;53.952;10.292;2022-09-27T00:54:09;7.50;;;5.43;;
65315;SDS011;51920;53.952;10.292;2022-09-27T00:56:37;7.97;;;5.00;;
65315;SDS011;51920;53.952;10.292;2022-09-27T00:59:16;6.60;;;5.25;;
65315;SDS011;51920;53.952;10.292;2022-09-27T01:01:47;8.27;;;5.30;;
65315;SDS011;51920;53.952;10.292;2022-09-27T01:04:14;7.30;;;4.93;;
65315;SDS011;51920;53.952;10.292;2022-09-27T01:06:46;7.70;;;5.13;;
65315;SDS011;51920;53.952;10.292;2022-09-27T01:09:12;7.50;;;5.50;;
65315;SDS011;51920;53.952;10.292;2022-09-27T01:22:23;9.15;;;5.60;;
65315;SDS011;51920;53.952;10.292;2022-09-27T01:30:44;7.25;;;4.90;;
65315;SDS011;51920;53.952;10.292;2022-09-27T01:33:31;6.72;;;4.63;;
65315;SDS011;51920;53.952;10.292;2022-09-27T01:36:08;6.15;;;4.60;;
65315;SDS011;51920;53.952;10.292;2022-09-27T01:38:44;7.40;;;5.13;;
65315;SDS011;51920;53.952;10.292;2022-09-27T01:41:25;7.30;;;5.00;;
65315;SDS011;51920;53.952;10.292;2022-09-27T01:44:01;6.15;;;4.60;;
65315;SDS011;51920;53.952;10.292;2022-09-27T01:46:49;6.15;;;4.40;;
65315;SDS011;51920;53.952;10.292;2022-09-27T01:52:28;5.90;;;4.18;;
65315;SDS011;51920;53.952;10.292;2022-09-27T01:54:59;5.93;;;4.00;;
65315;SDS011;51920;53.952;10.292;2022-09-27T01:57:47;5.72;;;4.03;;
65315;SDS011;51920;53.952;10.292;2022-09-27T02:00:22;6.65;;;4.80;;
65315;SDS011;51920;53.952;10.292;2022-09-27T02:02:58;6.53;;;4.38;;
65315;SDS011;51920;53.952;10.292;2022-09-27T02:05:37;6.77;;;4.33;;
65315;SDS011;51920;53.952;10.292;2022-09-27T02:09:01;6.05;;;4.25;;
65315;SDS011;51920;53.952;10.292;2022-09-27T02:11:44;6.70;;;4.80;;
65315;SDS011;51920;53.952;10.292;2022-09-27T02:14:20;5.47;;;4.10;;
65315;SDS011;51920;53.952;10.292;2022-09-27T02:17:07;5.90;;;4.20;;
65315;SDS011;51920;53.952;10.292;2022-09-27T02:22:24;5.28;;;4.07;;
65315;SDS011;51920;53.952;10.292;2022-09-27T02:24:58;5.53;;;3.88;;
65315;SDS011;51920;53.952;10.292;2022-09-27T02:27:29;4.47;;;3.70;;
65315;SDS011;51920;53.952;10.292;2022-09-27T02:30:14;5.50;;;4.03;;
65315;SDS011;51920;53.952;10.292;2022-09-27T02:32:43;5.40;;;3.93;;
65315;SDS011;51920;53.952;10.292;2022-09-27T02:37:44;6.13;;;3.95;;
65315;SDS011;51920;53.952;10.292;2022-09-27T02:40:10;6.20;;;3.88;;
65315;SDS011;51920;53.952;10.292;2022-09-27T02:42:36;4.90;;;3.80;;
65315;SDS011;51920;53.952;10.292;2022-09-27T02:45:02;4.90;;;3.30;;
65315;SDS011;51920;53.952;10.292;2022-09-27T02:53:52;4.85;;;3.38;;
65315;SDS011;51920;53.952;10.292;2022-09-27T03:00:09;5.28;;;3.85;;
65315;SDS011;51920;53.952;10.292;2022-09-27T03:03:23;4.70;;;3.37;;
65315;SDS011;51920;53.952;10.292;2022-09-27T03:06:07;5.78;;;4.10;;
65315;SDS011;51920;53.952;10.292;2022-09-27T03:08:35;6.57;;;4.45;;
65315;SDS011;51920;53.952;10.292;2022-09-27T03:11:02;5.13;;;4.00;;
65315;SDS011;51920;53.952;10.292;2022-09-27T03:13:28;6.28;;;4.20;;
65315;SDS011;51920;53.952;10.292;2022-09-27T03:15:56;6.57;;;4.50;;
65315;SDS011;51920;53.952;10.292;2022-09-27T03:19:00;5.85;;;4.03;;
65315;SDS011;51920;53.952;10.292;2022-09-27T03:21:48;5.65;;;4.10;;
65315;SDS011;51920;53.952;10.292;2022-09-27T03:24:14;5.77;;;4.17;;
65315;SDS011;51920;53.952;10.292;2022-09-27T03:26:39;7.38;;;4.80;;
65315;SDS011;51920;53.952;10.292;2022-09-27T03:29:05;7.10;;;4.30;;
65315;SDS011;51920;53.952;10.292;2022-09-27T03:31:30;5.97;;;4.33;;
65315;SDS011;51920;53.952;10.292;2022-09-27T03:34:28;6.57;;;4.70;;
65315;SDS011;51920;53.952;10.292;2022-09-27T03:36:54;6.05;;;4.70;;
65315;SDS011;51920;53.952;10.292;2022-09-27T03:39:19;7.50;;;4.77;;
65315;SDS011;51920;53.952;10.292;2022-09-27T03:41:45;6.53;;;4.60;;
65315;SDS011;51920;53.952;10.292;2022-09-27T03:44:11;6.95;;;4.60;;
65315;SDS011;51920;53.952;10.292;2022-09-27T03:46:37;7.28;;;4.75;;
65315;SDS011;51920;53.952;10.292;2022-09-27T03:49:03;6.13;;;4.43;;
65315;SDS011;51920;53.952;10.292;2022-09-27T03:51:28;7.25;;;4.80;;
65315;SDS011;51920;53.952;10.292;2022-09-27T03:53:54;6.10;;;4.53;;
65315;SDS011;51920;53.952;10.292;2022-09-27T03:56:20;6.07;;;4.57;;
65315;SDS011;51920;53.952;10.292;2022-09-27T03:58:47;7.15;;;4.95;;
65315;SDS011;51920;53.952;10.292;2022-09-27T04:01:13;6.05;;;4.70;;
65315;SDS011;51920;53.952;10.292;2022-09-27T04:03:40;6.88;;;5.05;;
65315;SDS011;51920;53.952;10.292;2022-09-27T04:06:05;6.70;;;4.77;;
65315;SDS011;51920;53.952;10.292;2022-09-27T04:08:36;7.97;;;5.22;;
65315;SDS011;51920;53.952;10.292;2022-09-27T04:11:03;7.72;;;5.00;;
65315;SDS011;51920;53.952;10.292;2022-09-27T04:13:29;8.20;;;5.30;;
65315;SDS011;51920;53.952;10.292;2022-09-27T04:15:55;7.97;;;5.30;;
65315;SDS011;51920;53.952;10.292;2022-09-27T04:18:20;8.67;;;5.23;;
65315;SDS011;51920;53.952;10.292;2022-09-27T04:21:08;9.25;;;5.40;;
65315;SDS011;51920;53.952;10.292;2022-09-27T04:23:37;7.13;;;5.38;;
65315;SDS011;51920;53.952;10.292;2022-09-27T04:26:03;8.50;;;5.80;;
65315;SDS011;51920;53.952;10.292;2022-09-27T04:28:45;9.07;;;5.25;;
65315;SDS011;51920;53.952;10.292;2022-09-27T04:31:11;8.40;;;4.95;;
65315;SDS011;51920;53.952;10.292;2022-09-27T04:33:55;7.28;;;5.05;;
65315;SDS011;51920;53.952;10.292;2022-09-27T04:36:24;8.48;;;5.78;;
65315;SDS011;51920;53.952;10.292;2022-09-27T04:39:00;8.10;;;5.70;;
65315;SDS011;51920;53.952;10.292;2022-09-27T04:41:29;8.38;;;5.60;;
65315;SDS011;51920;53.952;10.292;2022-09-27T04:43:55;7.32;;;5.00;;
65315;SDS011;51920;53.952;10.292;2022-09-27T04:46:22;8.23;;;5.35;;
65315;SDS011;51920;53.952;10.292;2022-09-27T04:48:49;9.23;;;5.75;;
65315;SDS011;51920;53.952;10.292;2022-09-27T04:51:15;8.00;;;5.40;;
65315;SDS011;51920;53.952;10.292;2022-09-27T04:53:45;9.40;;;6.20;;
65315;SDS011;51920;53.952;10.292;2022-09-27T04:56:11;9.40;;;5.87;;
65315;SDS011;51920;53.952;10.292;2022-09-27T04:58:38;9.40;;;5.80;;
65315;SDS011;51920;53.952;10.292;2022-09-27T05:01:04;9.50;;;6.05;;
65315;SDS011;51920;53.952;10.292;2022-09-27T05:03:51;10.05;;;5.35;;
65315;SDS011;51920;53.952;10.292;2022-09-27T05:06:17;10.80;;;5.90;;
65315;SDS011;51920;53.952;10.292;2022-09-27T05:08:42;9.80;;;6.22;;
65315;SDS011;51920;53.952;10.292;2022-09-27T05:11:12;8.85;;;5.70;;
65315;SDS011;51920;53.952;10.292;2022-09-27T05:13:38;9.50;;;5.90;;
65315;SDS011;51920;53.952;10.292;2022-09-27T05:16:03;9.73;;;6.10;;
65315;SDS011;51920;53.952;10.292;2022-09-27T05:18:43;10.27;;;5.78;;
65315;SDS011;51920;53.952;10.292;2022-09-27T05:21:29;10.70;;;6.53;;
65315;SDS011;51920;53.952;10.292;2022-09-27T05:23:56;11.13;;;6.80;;
65315;SDS011;51920;53.952;10.292;2022-09-27T05:26:22;10.55;;;6.68;;
65315;SDS011;51920;53.952;10.292;2022-09-27T05:28:47;9.17;;;6.00;;
65315;SDS011;51920;53.952;10.292;2022-09-27T05:31:14;11.02;;;7.00;;
65315;SDS011;51920;53.952;10.292;2022-09-27T05:33:40;10.43;;;6.57;;
65315;SDS011;51920;53.952;10.292;2022-09-27T05:36:31;10.07;;;6.78;;
65315;SDS011;51920;53.952;10.292;2022-09-27T05:38:57;10.73;;;6.53;;
65315;SDS011;51920;53.952;10.292;2022-09-27T05:41:23;10.35;;;6.90;;
65315;SDS011;51920;53.952;10.292;2022-09-27T05:43:49;11.40;;;6.82;;
65315;SDS011;51920;53.952;10.292;2022-09-27T05:46:15;11.60;;;6.60;;
65315;SDS011;51920;53.952;10.292;2022-09-27T05:48:41;10.40;;;6.53;;
65315;SDS011;51920;53.952;10.292;2022-09-27T05:51:07;10.20;;;6.10;;
65315;SDS011;51920;53.952;10.292;2022-09-27T05:53:35;11.10;;;6.47;;
65315;SDS011;51920;53.952;10.292;2022-09-27T05:56:03;10.50;;;6.65;;
65315;SDS011;51920;53.952;10.292;2022-09-27T05:58:47;11.73;;;6.55;;
65315;SDS011;51920;53.952;10.292;2022-09-27T06:01:37;11.85;;;7.15;;
65315;SDS011;51920;53.952;10.292;2022-09-27T06:04:27;13.43;;;8.60;;
65315;SDS011;51920;53.952;10.292;2022-09-27T06:07:15;14.05;;;8.63;;
65315;SDS011;51920;53.952;10.292;2022-09-27T06:10:06;11.77;;;7.05;;
65315;SDS011;51920;53.952;10.292;2022-09-27T06:12:36;12.27;;;6.95;;
65315;SDS011;51920;53.952;10.292;2022-09-27T06:15:07;11.20;;;6.70;;
65315;SDS011;51920;53.952;10.292;2022-09-27T06:17:37;12.10;;;6.70;;
65315;SDS011;51920;53.952;10.292;2022-09-27T06:20:09;12.13;;;6.93;;
65315;SDS011;51920;53.952;10.292;2022-09-27T06:22:35;14.65;;;7.60;;
65315;SDS011;51920;53.952;10.292;2022-09-27T06:25:01;14.30;;;7.17;;
65315;SDS011;51920;53.952;10.292;2022-09-27T06:27:30;13.35;;;7.38;;
65315;SDS011;51920;53.952;10.292;2022-09-27T06:30:05;16.35;;;8.13;;
65315;SDS011;51920;53.952;10.292;2022-09-27T06:32:42;13.75;;;7.82;;
65315;SDS011;51920;53.952;10.292;2022-09-27T06:35:34;15.98;;;7.50;;
65315;SDS011;51920;53.952;10.292;2022-09-27T06:38:04;14.03;;;7.40;;
65315;SDS011;51920;53.952;10.292;2022-09-27T06:40:37;14.23;;;7.95;;
65315;SDS011;51920;53.952;10.292;2022-09-27T06:43:13;12.95;;;7.32;;
65315;SDS011;51920;53.952;10.292;2022-09-27T06:46:19;12.63;;;7.10;;
65315;SDS011;51920;53.952;10.292;2022-09-27T06:49:05;12.77;;;6.85;;
65315;SDS011;51920;53.952;10.292;2022-09-27T06:51:31;11.17;;;6.20;;
65315;SDS011;51920;53.952;10.292;2022-09-27T06:53:58;10.57;;;5.97;;
65315;SDS011;51920;53.952;10.292;2022-09-27T06:56:23;10.87;;;6.13;;
65315;SDS011;51920;53.952;10.292;2022-09-27T06:58:50;10.55;;;6.20;;
65315;SDS011;51920;53.952;10.292;2022-09-27T07:01:40;11.18;;;6.18;;
65315;SDS011;51920;53.952;10.292;2022-09-27T07:04:24;9.85;;;6.32;;
65315;SDS011;51920;53.952;10.292;2022-09-27T07:07:10;11.63;;;6.70;;
65315;SDS011;51920;53.952;10.292;2022-09-27T07:09:47;12.68;;;6.97;;
65315;SDS011;51920;53.952;10.292;2022-09-27T07:12:12;13.53;;;6.33;;
65315;SDS011;51920;53.952;10.292;2022-09-27T07:14:38;14.93;;;7.40;;
65315;SDS011;51920;53.952;10.292;2022-09-27T07:17:07;14.95;;;7.90;;
65315;SDS011;51920;53.952;10.292;2022-09-27T07:19:42;14.35;;;7.63;;
65315;SDS011;51920;53.952;10.292;2022-09-27T07:22:09;14.82;;;7.40;;
65315;SDS011;51920;53.952;10.292;2022-09-27T07:24:35;12.27;;;7.17;;
65315;SDS011;51920;53.952;10.292;2022-09-27T07:27:01;13.35;;;6.95;;
65315;SDS011;51920;53.952;10.292;2022-09-27T07:29:26;13.60;;;6.83;;
65315;SDS011;51920;53.952;10.292;2022-09-27T07:31:52;13.30;;;7.57;;
65315;SDS011;51920;53.952;10.292;2022-09-27T07:34:18;13.77;;;7.33;;
65315;SDS011;51920;53.952;10.292;2022-09-27T07:36:44;13.38;;;7.47;;
65315;SDS011;51920;53.952;10.292;2022-09-27T07:39:10;14.15;;;7.72;;
65315;SDS011;51920;53.952;10.292;2022-09-27T07:41:35;13.87;;;7.37;;
65315;SDS011;51920;53.952;10.292;2022-09-27T07:44:03;13.52;;;7.15;;
65315;SDS011;51920;53.952;10.292;2022-09-27T07:46:32;13.98;;;7.07;;
65315;SDS011;51920;53.952;10.292;2022-09-27T07:49:19;13.32;;;7.63;;
65315;SDS011;51920;53.952;10.292;2022-09-27T07:52:13;11.97;;;6.67;;
65315;SDS011;51920;53.952;10.292;2022-09-27T07:55:04;12.43;;;6.75;;
65315;SDS011;51920;53.952;10.292;2022-09-27T07:57:37;11.52;;;6.35;;
65315;SDS011;51920;53.952;10.292;2022-09-27T08:00:04;14.60;;;6.70;;
65315;SDS011;51920;53.952;10.292;2022-09-27T08:02:38;12.75;;;7.03;;
65315;SDS011;51920;53.952;10.292;2022-09-27T08:05:04;11.27;;;6.10;;
65315;SDS011;51920;53.952;10.292;2022-09-27T08:07:30;14.27;;;6.53;;
65315;SDS011;51920;53.952;10.292;2022-09-27T08:09:57;11.25;;;6.68;;
65315;SDS011;51920;53.952;10.292;2022-09-27T08:12:23;10.23;;;6.33;;
65315;SDS011;51920;53.952;10.292;2022-09-27T08:14:49;11.05;;;6.05;;
65315;SDS011;51920;53.952;10.292;2022-09-27T08:17:15;10.52;;;6.28;;
65315;SDS011;51920;53.952;10.292;2022-09-27T08:20:02;12.27;;;6.63;;
65315;SDS011;51920;53.952;10.292;2022-09-27T08:22:51;11.52;;;5.45;;
65315;SDS011;51920;53.952;10.292;2022-09-27T08:25:24;10.20;;;6.00;;
65315;SDS011;51920;53.952;10.292;2022-09-27T08:28:05;15.40;;;9.68;;
65315;SDS011;51920;53.952;10.292;2022-09-27T08:30:43;9.80;;;6.10;;
65315;SDS011;51920;53.952;10.292;2022-09-27T08:33:08;8.53;;;5.17;;
65315;SDS011;51920;53.952;10.292;2022-09-27T08:35:34;9.90;;;6.10;;
65315;SDS011;51920;53.952;10.292;2022-09-27T08:38:01;9.60;;;6.00;;
65315;SDS011;51920;53.952;10.292;2022-09-27T08:40:33;8.52;;;5.60;;
65315;SDS011;51920;53.952;10.292;2022-09-27T08:48:24;7.55;;;4.88;;
65315;SDS011;51920;53.952;10.292;2022-09-27T08:50:52;6.43;;;4.20;;
65315;SDS011;51920;53.952;10.292;2022-09-27T08:53:27;6.13;;;3.10;;
65315;SDS011;51920;53.952;10.292;2022-09-27T08:55:58;4.53;;;2.70;;
65315;SDS011;51920;53.952;10.292;2022-09-27T09:01:03;4.32;;;2.40;;
65315;SDS011;51920;53.952;10.292;2022-09-27T09:03:39;3.28;;;1.50;;
65315;SDS011;51920;53.952;10.292;2022-09-27T09:06:24;2.67;;;1.60;;
65315;SDS011;51920;53.952;10.292;2022-09-27T09:15:05;3.13;;;2.03;;
65315;SDS011;51920;53.952;10.292;2022-09-27T09:18:06;3.40;;;1.70;;
65315;SDS011;51920;53.952;10.292;2022-09-27T09:24:25;4.00;;;1.90;;
65315;SDS011;51920;53.952;10.292;2022-09-27T09:27:45;3.50;;;1.63;;
65315;SDS011;51920;53.952;10.292;2022-09-27T09:33:51;2.42;;;1.40;;
65315;SDS011;51920;53.952;10.292;2022-09-27T09:43:25;6.37;;;2.50;;
65315;SDS011;51920;53.952;10.292;2022-09-27T09:45:54;4.50;;;2.03;;
65315;SDS011;51920;53.952;10.292;2022-09-27T09:48:31;5.25;;;2.30;;
65315;SDS011;51920;53.952;10.292;2022-09-27T09:51:04;5.30;;;2.50;;
65315;SDS011;51920;53.952;10.292;2022-09-27T09:59:02;3.70;;;2.20;;
65315;SDS011;51920;53.952;10.292;2022-09-27T10:01:42;3.58;;;1.90;;
65315;SDS011;51920;53.952;10.292;2022-09-27T10:04:19;4.45;;;2.15;;
65315;SDS011;51920;53.952;10.292;2022-09-27T10:06:51;6.43;;;3.22;;
65315;SDS011;51920;53.952;10.292;2022-09-27T10:09:23;8.07;;;2.60;;
65315;SDS011;51920;53.952;10.292;2022-09-27T10:12:10;4.20;;;2.10;;
65315;SDS011;51920;53.952;10.292;2022-09-27T10:14:37;3.50;;;2.10;;
65315;SDS011;51920;53.952;10.292;2022-09-27T10:17:39;6.10;;;1.90;;
65315;SDS011;51920;53.952;10.292;2022-09-27T10:23:13;5.33;;;2.30;;
65315;SDS011;51920;53.952;10.292;2022-09-27T10:26:04;2.67;;;1.50;;
65315;SDS011;51920;53.952;10.292;2022-09-27T10:28:37;3.13;;;1.50;;
65315;SDS011;51920;53.952;10.292;2022-09-27T10:31:14;4.25;;;1.80;;
65315;SDS011;51920;53.952;10.292;2022-09-27T10:34:15;4.78;;;1.90;;
65315;SDS011;51920;53.952;10.292;2022-09-27T10:36:48;3.77;;;2.03;;
65315;SDS011;51920;53.952;10.292;2022-09-27T10:39:27;3.60;;;1.90;;
65315;SDS011;51920;53.952;10.292;2022-09-27T10:41:54;3.00;;;1.27;;
65315;SDS011;51920;53.952;10.292;2022-09-27T10:44:30;2.13;;;1.40;;
65315;SDS011;51920;53.952;10.292;2022-09-27T10:47:25;3.90;;;1.42;;
65315;SDS011;51920;53.952;10.292;2022-09-27T10:50:15;3.70;;;1.37;;
65315;SDS011;51920;53.952;10.292;2022-09-27T10:53:04;5.88;;;2.20;;
65315;SDS011;51920;53.952;10.292;2022-09-27T10:55:41;3.75;;;1.80;;
65315;SDS011;51920;53.952;10.292;2022-09-27T10:58:17;4.80;;;2.33;;
65315;SDS011;51920;53.952;10.292;2022-09-27T11:00:59;3.75;;;2.20;;
65315;SDS011;51920;53.952;10.292;2022-09-27T11:03:30;3.23;;;1.70;;
65315;SDS011;51920;53.952;10.292;2022-09-27T11:05:58;4.97;;;1.83;;
65315;SDS011;51920;53.952;10.292;2022-09-27T11:08:28;4.88;;;2.05;;
65315;SDS011;51920;53.952;10.292;2022-09-27T11:13:58;4.20;;;2.23;;
65315;SDS011;51920;53.952;10.292;2022-09-27T11:16:34;5.20;;;2.53;;
65315;SDS011;51920;53.952;10.292;2022-09-27T11:22:31;3.92;;;2.58;;
65315;SDS011;51920;53.952;10.292;2022-09-27T11:25:28;3.03;;;2.42;;
65315;SDS011;51920;53.952;10.292;2022-09-27T11:28:29;4.77;;;2.60;;
65315;SDS011;51920;53.952;10.292;2022-09-27T11:37:41;5.45;;;4.35;;
65315;SDS011;51920;53.952;10.292;2022-09-27T11:48:53;3.17;;;2.80;;
65315;SDS011;51920;53.952;10.292;2022-09-27T11:52:10;3.28;;;2.40;;
65315;SDS011;51920;53.952;10.292;2022-09-27T11:54:54;3.47;;;2.67;;
65315;SDS011;51920;53.952;10.292;2022-09-27T11:58:03;2.80;;;2.43;;
65315;SDS011;51920;53.952;10.292;2022-09-27T12:06:15;3.03;;;2.08;;
65315;SDS011;51920;53.952;10.292;2022-09-27T12:11:44;2.07;;;1.80;;
65315;SDS011;51920;53.952;10.292;2022-09-27T12:17:22;2.97;;;2.22;;
65315;SDS011;51920;53.952;10.292;2022-09-27T12:19:52;2.90;;;2.10;;
65315;SDS011;51920;53.952;10.292;2022-09-27T12:22:34;4.05;;;2.33;;
65315;SDS011;51920;53.952;10.292;2022-09-27T12:25:04;2.77;;;2.00;;
65315;SDS011;51920;53.952;10.292;2022-09-27T12:27:42;2.60;;;2.10;;
65315;SDS011;51920;53.952;10.292;2022-09-27T12:30:17;5.07;;;2.60;;
65315;SDS011;51920;53.952;10.292;2022-09-27T12:35:30;3.10;;;2.80;;
65315;SDS011;51920;53.952;10.292;2022-09-27T12:37:59;3.10;;;2.33;;
65315;SDS011;51920;53.952;10.292;2022-09-27T12:40:31;3.80;;;2.20;;
65315;SDS011;51920;53.952;10.292;2022-09-27T12:52:16;3.40;;;2.30;;
65315;SDS011;51920;53.952;10.292;2022-09-27T12:54:34;3.35;;;2.28;;
65315;SDS011;51920;53.952;10.292;2022-09-27T13:00:17;3.30;;;2.28;;
65315;SDS011;51920;53.952;10.292;2022-09-27T13:11:05;3.15;;;2.25;;
65315;SDS011;51920;53.952;10.292;2022-09-27T13:13:38;3.03;;;2.50;;
65315;SDS011;51920;53.952;10.292;2022-09-27T13:16:06;3.80;;;2.50;;
65315;SDS011;51920;53.952;10.292;2022-09-27T13:21:13;3.25;;;2.28;;
65315;SDS011;51920;53.952;10.292;2022-09-27T13:27:12;4.32;;;2.30;;
65315;SDS011;51920;53.952;10.292;2022-09-27T13:32:34;5.20;;;2.20;;
65315;SDS011;51920;53.952;10.292;2022-09-27T13:40:39;2.60;;;1.80;;
65315;SDS011;51920;53.952;10.292;2022-09-27T13:46:28;1.87;;;1.60;;
65315;SDS011;51920;53.952;10.292;2022-09-27T13:49:02;2.85;;;1.50;;
65315;SDS011;51920;53.952;10.292;2022-09-27T13:58:02;2.10;;;1.60;;
65315;SDS011;51920;53.952;10.292;2022-09-27T14:00:37;2.03;;;1.50;;
65315;SDS011;51920;53.952;10.292;2022-09-27T14:06:20;1.63;;;1.52;;
65315;SDS011;51920;53.952;10.292;2022-09-27T14:11:26;2.53;;;2.33;;
65315;SDS011;51920;53.952;10.292;2022-09-27T14:13:55;2.50;;;2.30;;
65315;SDS011;51920;53.952;10.292;2022-09-27T14:16:23;3.53;;;2.10;;
65315;SDS011;51920;53.952;10.292;2022-09-27T14:18:53;2.17;;;1.98;;
65315;SDS011;51920;53.952;10.292;2022-09-27T14:21:36;2.28;;;2.08;;
65315;SDS011;51920;53.952;10.292;2022-09-27T14:27:05;2.60;;;2.00;;
65315;SDS011;51920;53.952;10.292;2022-09-27T14:29:36;2.22;;;2.00;;
65315;SDS011;51920;53.952;10.292;2022-09-27T14:32:06;3.05;;;2.00;;
65315;SDS011;51920;53.952;10.292;2022-09-27T14:35:00;2.60;;;1.90;;
65315;SDS011;51920;53.952;10.292;2022-09-27T14:38:06;2.65;;;1.90;;
65315;SDS011;51920;53.952;10.292;2022-09-27T14:40:41;2.83;;;1.93;;
65315;SDS011;51920;53.952;10.292;2022-09-27T14:43:16;2.28;;;2.00;;
65315;SDS011;51920;53.952;10.292;2022-09-27T14:45:44;3.60;;;2.65;;
65315;SDS011;51920;53.952;10.292;2022-09-27T14:48:22;2.60;;;2.00;;
65315;SDS011;51920;53.952;10.292;2022-09-27T14:53:29;4.80;;;3.27;;
65315;SDS011;51920;53.952;10.292;2022-09-27T14:56:05;4.80;;;3.75;;
65315;SDS011;51920;53.952;10.292;2022-09-27T14:58:32;5.03;;;3.75;;
65315;SDS011;51920;53.952;10.292;2022-09-27T15:00:57;5.67;;;4.00;;
65315;SDS011;51920;53.952;10.292;2022-09-27T15:03:26;4.97;;;3.60;;
65315;SDS011;51920;53.952;10.292;2022-09-27T15:05:55;4.30;;;2.20;;
65315;SDS011;51920;53.952;10.292;2022-09-27T15:08:23;2.90;;;2.30;;
65315;SDS011;51920;53.952;10.292;2022-09-27T15:10:54;2.80;;;2.20;;
65315;SDS011;51920;53.952;10.292;2022-09-27T15:13:20;2.50;;;1.80;;
65315;SDS011;51920;53.952;10.292;2022-09-27T15:15:46;3.67;;;1.92;;
65315;SDS011;51920;53.952;10.292;2022-09-27T15:20:56;2.93;;;1.80;;
65315;SDS011;51920;53.952;10.292;2022-09-27T15:23:26;2.70;;;2.10;;
65315;SDS011;51920;53.952;10.292;2022-09-27T15:28:33;4.10;;;2.50;;
65315;SDS011;51920;53.952;10.292;2022-09-27T15:31:03;3.40;;;2.60;;
65315;SDS011;51920;53.952;10.292;2022-09-27T15:33:31;3.75;;;2.30;;
65315;SDS011;51920;53.952;10.292;2022-09-27T15:35:59;3.58;;;2.55;;
65315;SDS011;51920;53.952;10.292;2022-09-27T15:41:07;3.20;;;2.30;;
65315;SDS011;51920;53.952;10.292;2022-09-27T15:43:42;3.55;;;2.90;;
65315;SDS011;51920;53.952;10.292;2022-09-27T15:51:41;5.10;;;2.58;;
65315;SDS011;51920;53.952;10.292;2022-09-27T15:54:08;3.43;;;2.83;;
65315;SDS011;51920;53.952;10.292;2022-09-27T15:56:33;4.50;;;3.80;;
65315;SDS011;51920;53.952;10.292;2022-09-27T15:58:59;5.23;;;4.13;;
65315;SDS011;51920;53.952;10.292;2022-09-27T16:01:25;4.95;;;3.83;;
65315;SDS011;51920;53.952;10.292;2022-09-27T16:03:50;5.33;;;3.90;;
65315;SDS011;51920;53.952;10.292;2022-09-27T16:06:16;4.83;;;3.83;;
65315;SDS011;51920;53.952;10.292;2022-09-27T16:08:42;4.68;;;3.58;;
65315;SDS011;51920;53.952;10.292;2022-09-27T16:11:11;4.47;;;3.40;;
65315;SDS011;51920;53.952;10.292;2022-09-27T16:13:39;5.43;;;3.10;;
65315;SDS011;51920;53.952;10.292;2022-09-27T16:16:04;3.40;;;2.67;;
65315;SDS011;51920;53.952;10.292;2022-09-27T16:18:30;2.67;;;2.47;;
65315;SDS011;51920;53.952;10.292;2022-09-27T16:20:57;3.28;;;2.10;;
65315;SDS011;51920;53.952;10.292;2022-09-27T16:23:23;3.17;;;2.30;;
65315;SDS011;51920;53.952;10.292;2022-09-27T16:25:51;3.00;;;2.70;;
65315;SDS011;51920;53.952;10.292;2022-09-27T16:28:16;4.30;;;3.67;;
65315;SDS011;51920;53.952;10.292;2022-09-27T16:30:42;4.20;;;3.27;;
65315;SDS011;51920;53.952;10.292;2022-09-27T16:33:09;6.43;;;3.78;;
65315;SDS011;51920;53.952;10.292;2022-09-27T16:35:37;3.30;;;2.87;;
65315;SDS011;51920;53.952;10.292;2022-09-27T16:38:04;6.07;;;3.75;;
65315;SDS011;51920;53.952;10.292;2022-09-27T16:40:29;4.17;;;3.27;;
65315;SDS011;51920;53.952;10.292;2022-09-27T16:42:55;5.35;;;3.58;;
65315;SDS011;51920;53.952;10.292;2022-09-27T16:45:24;4.47;;;3.50;;
65315;SDS011;51920;53.952;10.292;2022-09-27T16:47:56;5.13;;;3.88;;
65315;SDS011;51920;53.952;10.292;2022-09-27T16:50:22;6.85;;;4.95;;
65315;SDS011;51920;53.952;10.292;2022-09-27T16:53:06;5.73;;;4.30;;
65315;SDS011;51920;53.952;10.292;2022-09-27T16:55:34;4.38;;;3.40;;
65315;SDS011;51920;53.952;10.292;2022-09-27T16:58:00;6.05;;;4.40;;
65315;SDS011;51920;53.952;10.292;2022-09-27T17:00:27;5.23;;;3.50;;
65315;SDS011;51920;53.952;10.292;2022-09-27T17:02:54;5.05;;;3.30;;
65315;SDS011;51920;53.952;10.292;2022-09-27T17:05:20;4.70;;;3.23;;
65315;SDS011;51920;53.952;10.292;2022-09-27T17:07:50;6.18;;;3.88;;
65315;SDS011;51920;53.952;10.292;2022-09-27T17:10:17;5.63;;;3.88;;
65315;SDS011;51920;53.952;10.292;2022-09-27T17:12:44;7.03;;;3.60;;
65315;SDS011;51920;53.952;10.292;2022-09-27T17:15:10;6.38;;;3.75;;
65315;SDS011;51920;53.952;10.292;2022-09-27T17:17:35;5.97;;;3.53;;
65315;SDS011;51920;53.952;10.292;2022-09-27T17:20:01;3.60;;;3.00;;
65315;SDS011;51920;53.952;10.292;2022-09-27T17:22:26;4.70;;;3.10;;
65315;SDS011;51920;53.952;10.292;2022-09-27T17:24:52;4.30;;;3.03;;
65315;SDS011;51920;53.952;10.292;2022-09-27T17:27:17;5.80;;;4.22;;
65315;SDS011;51920;53.952;10.292;2022-09-27T17:29:42;5.37;;;3.83;;
65315;SDS011;51920;53.952;10.292;2022-09-27T17:32:08;6.43;;;4.60;;
65315;SDS011;51920;53.952;10.292;2022-09-27T17:34:34;6.07;;;3.47;;
65315;SDS011;51920;53.952;10.292;2022-09-27T17:37:00;4.75;;;3.03;;
65315;SDS011;51920;53.952;10.292;2022-09-27T17:39:25;3.93;;;2.60;;
65315;SDS011;51920;53.952;10.292;2022-09-27T17:41:51;3.33;;;2.60;;
65315;SDS011;51920;53.952;10.292;2022-09-27T17:44:16;3.60;;;2.10;;
65315;SDS011;51920;53.952;10.292;2022-09-27T17:46:43;5.97;;;2.83;;
65315;SDS011;51920;53.952;10.292;2022-09-27T17:49:12;4.40;;;2.70;;
65315;SDS011;51920;53.952;10.292;2022-09-27T17:51:57;4.28;;;2.70;;
65315;SDS011;51920;53.952;10.292;2022-09-27T17:54:23;4.25;;;2.50;;
65315;SDS011;51920;53.952;10.292;2022-09-27T17:56:50;3.83;;;2.40;;
65315;SDS011;51920;53.952;10.292;2022-09-27T17:59:16;2.97;;;2.20;;
65315;SDS011;51920;53.952;10.292;2022-09-27T18:01:42;3.75;;;2.10;;
65315;SDS011;51920;53.952;10.292;2022-09-27T18:04:12;3.92;;;3.15;;